South Poultney, Vermont
Current Conditions -  °F | °C
As of 3:55 PM on Thursday 18 Dec 2014 (Local Time) from KRUT Reporting Station
Overcast Overcast  
Wind Chill: 28°   Ceiling: 2800
Heat Index: 34°   Visibility: 10mi
Dew Point: 25°   Wind: 7mph
Humidity: 70%   Direction: 300°WNW
Pressure: 29.83"   Gusts: NA
Location:  43.5323°N, 73.1932°W
Report Text: KRUT 182055Z 30006KT 10SM OVC028 01/M04 A2983 RMK AO1 52007
Loading
Personal Weather Stations






























Interactive Weather Map New forecast layout! Learn more

10-Day Weather Forecast

Advertisements
Track Severe Weather on mobile